Terminal Aerodrome Forecast
Issued by NWS Norman, OK

Home | Current Version | Previous Version | Text Only | Print | Product List | Glossary On
Versions: 1 2 3 4 5 6 7 8 9 10 11 12 13 14
000
FTUS44 KOUN 221725
TAFSPS
TAF
KSPS 221725Z 2218/2318 22008KT P6SM FEW250
     FM230100 17006KT P6SM SKC
     FM231500 20012G18KT P6SM BKN250=

USA.gov is the U.S. government's official web portal to all federal, state and local government web resources and services.